sensor_id;sensor_type;location;lat;lon;timestamp;temperature;humidity
28959;DHT22;16066;0.000;0.000;2024-02-23T06:02:42;18.80;44.00
28959;DHT22;16066;0.000;0.000;2024-02-23T06:05:08;18.80;44.20
28959;DHT22;16066;0.000;0.000;2024-02-23T06:07:34;18.80;44.40
28959;DHT22;16066;0.000;0.000;2024-02-23T06:10:00;18.80;44.50
28959;DHT22;16066;0.000;0.000;2024-02-23T06:12:26;18.80;44.70
28959;DHT22;16066;0.000;0.000;2024-02-23T06:14:52;18.80;44.40
28959;DHT22;16066;0.000;0.000;2024-02-23T06:17:17;18.80;44.60
28959;DHT22;16066;0.000;0.000;2024-02-23T06:19:43;18.80;44.50
28959;DHT22;16066;0.000;0.000;2024-02-23T06:22:09;18.80;44.60
28959;DHT22;16066;0.000;0.000;2024-02-23T06:24:36;18.80;44.70
28959;DHT22;16066;0.000;0.000;2024-02-23T06:27:01;18.80;44.70
28959;DHT22;16066;0.000;0.000;2024-02-23T06:29:28;18.80;44.60
28959;DHT22;16066;0.000;0.000;2024-02-23T06:31:55;18.80;44.40
28959;DHT22;16066;0.000;0.000;2024-02-23T06:34:20;18.80;44.50
28959;DHT22;16066;0.000;0.000;2024-02-23T06:36:46;18.80;44.50
28959;DHT22;16066;0.000;0.000;2024-02-23T06:39:11;18.80;44.60
28959;DHT22;16066;0.000;0.000;2024-02-23T06:41:38;18.80;44.60
28959;DHT22;16066;0.000;0.000;2024-02-23T06:44:04;18.90;44.60
28959;DHT22;16066;0.000;0.000;2024-02-23T06:46:30;18.90;44.60
28959;DHT22;16066;0.000;0.000;2024-02-23T06:48:55;19.00;45.00
28959;DHT22;16066;0.000;0.000;2024-02-23T06:51:21;19.00;45.20
28959;DHT22;16066;0.000;0.000;2024-02-23T06:53:47;19.00;45.40
28959;DHT22;16066;0.000;0.000;2024-02-23T06:56:12;19.10;45.80
28959;DHT22;16066;0.000;0.000;2024-02-23T06:58:38;19.20;46.00
28959;DHT22;16066;0.000;0.000;2024-02-23T07:01:04;19.30;46.40
28959;DHT22;16066;0.000;0.000;2024-02-23T07:03:32;19.30;46.20
28959;DHT22;16066;0.000;0.000;2024-02-23T07:05:58;19.40;46.20
28959;DHT22;16066;0.000;0.000;2024-02-23T07:08:23;19.50;46.90
28959;DHT22;16066;0.000;0.000;2024-02-23T07:10:49;19.60;46.10
28959;DHT22;16066;0.000;0.000;2024-02-23T07:13:14;19.70;46.10
28959;DHT22;16066;0.000;0.000;2024-02-23T07:15:40;19.70;45.80
28959;DHT22;16066;0.000;0.000;2024-02-23T07:18:06;19.80;45.70
28959;DHT22;16066;0.000;0.000;2024-02-23T07:20:35;19.80;45.60
28959;DHT22;16066;0.000;0.000;2024-02-23T07:23:00;19.90;45.70
28959;DHT22;16066;0.000;0.000;2024-02-23T07:25:26;20.00;46.00
28959;DHT22;16066;0.000;0.000;2024-02-23T07:27:51;20.10;46.20
28959;DHT22;16066;0.000;0.000;2024-02-23T07:30:17;20.20;47.00
28959;DHT22;16066;0.000;0.000;2024-02-23T07:32:44;20.20;46.20
28959;DHT22;16066;0.000;0.000;2024-02-23T07:35:10;20.30;46.90
28959;DHT22;16066;0.000;0.000;2024-02-23T07:37:36;20.40;47.30
28959;DHT22;16066;0.000;0.000;2024-02-23T07:40:03;20.50;47.40
28959;DHT22;16066;0.000;0.000;2024-02-23T07:42:30;20.60;46.40
28959;DHT22;16066;0.000;0.000;2024-02-23T07:44:55;20.60;46.50
28959;DHT22;16066;0.000;0.000;2024-02-23T07:47:21;20.70;46.60
28959;DHT22;16066;0.000;0.000;2024-02-23T07:49:47;20.80;46.40
28959;DHT22;16066;0.000;0.000;2024-02-23T07:52:13;20.80;46.70
28959;DHT22;16066;0.000;0.000;2024-02-23T07:54:38;20.80;46.10
28959;DHT22;16066;0.000;0.000;2024-02-23T07:57:04;20.90;46.00
28959;DHT22;16066;0.000;0.000;2024-02-23T07:59:32;20.90;45.90
28959;DHT22;16066;0.000;0.000;2024-02-23T08:01:58;20.90;45.70
28959;DHT22;16066;0.000;0.000;2024-02-23T08:04:24;20.90;46.00
28959;DHT22;16066;0.000;0.000;2024-02-23T08:06:49;21.00;45.90
28959;DHT22;16066;0.000;0.000;2024-02-23T08:09:16;21.00;45.30
28959;DHT22;16066;0.000;0.000;2024-02-23T08:11:43;21.00;45.40
28959;DHT22;16066;0.000;0.000;2024-02-23T08:14:08;21.00;45.00
28959;DHT22;16066;0.000;0.000;2024-02-23T08:16:34;21.10;45.10
28959;DHT22;16066;0.000;0.000;2024-02-23T08:18:59;21.10;44.70
28959;DHT22;16066;0.000;0.000;2024-02-23T08:21:25;21.10;44.50
28959;DHT22;16066;0.000;0.000;2024-02-23T08:23:51;21.10;44.70
28959;DHT22;16066;0.000;0.000;2024-02-23T08:26:17;21.10;44.30
28959;DHT22;16066;0.000;0.000;2024-02-23T08:28:43;21.10;44.20
28959;DHT22;16066;0.000;0.000;2024-02-23T08:31:08;21.10;43.80
28959;DHT22;16066;0.000;0.000;2024-02-23T08:33:34;21.20;43.70
28959;DHT22;16066;0.000;0.000;2024-02-23T08:35:59;21.20;43.50
28959;DHT22;16066;0.000;0.000;2024-02-23T08:38:25;21.20;43.30
28959;DHT22;16066;0.000;0.000;2024-02-23T08:40:50;21.20;43.30
28959;DHT22;16066;0.000;0.000;2024-02-23T08:43:16;21.30;43.10
28959;DHT22;16066;0.000;0.000;2024-02-23T08:45:42;21.30;43.00
28959;DHT22;16066;0.000;0.000;2024-02-23T08:48:07;21.30;42.70
28959;DHT22;16066;0.000;0.000;2024-02-23T08:50:34;21.30;42.90
28959;DHT22;16066;0.000;0.000;2024-02-23T08:52:59;21.30;42.80
28959;DHT22;16066;0.000;0.000;2024-02-23T08:55:25;21.30;42.50
28959;DHT22;16066;0.000;0.000;2024-02-23T08:57:50;21.30;42.60
28959;DHT22;16066;0.000;0.000;2024-02-23T09:00:16;21.30;42.50
28959;DHT22;16066;0.000;0.000;2024-02-23T09:02:42;21.30;42.00
28959;DHT22;16066;0.000;0.000;2024-02-23T09:05:08;21.40;42.10
28959;DHT22;16066;0.000;0.000;2024-02-23T09:07:34;21.40;42.20
28959;DHT22;16066;0.000;0.000;2024-02-23T09:10:00;21.40;42.10
28959;DHT22;16066;0.000;0.000;2024-02-23T09:12:25;21.40;41.90
28959;DHT22;16066;0.000;0.000;2024-02-23T09:14:51;21.40;42.10
28959;DHT22;16066;0.000;0.000;2024-02-23T09:17:17;21.40;42.40
28959;DHT22;16066;0.000;0.000;2024-02-23T09:19:44;21.40;42.40
28959;DHT22;16066;0.000;0.000;2024-02-23T09:22:09;21.30;42.10
28959;DHT22;16066;0.000;0.000;2024-02-23T09:24:35;21.30;42.30
28959;DHT22;16066;0.000;0.000;2024-02-23T09:27:04;21.30;42.30
28959;DHT22;16066;0.000;0.000;2024-02-23T09:29:29;21.30;42.20
28959;DHT22;16066;0.000;0.000;2024-02-23T09:31:55;21.20;42.30
28959;DHT22;16066;0.000;0.000;2024-02-23T09:34:20;21.20;42.50
28959;DHT22;16066;0.000;0.000;2024-02-23T09:36:46;21.20;42.80
28959;DHT22;16066;0.000;0.000;2024-02-23T09:39:11;21.20;42.90
28959;DHT22;16066;0.000;0.000;2024-02-23T09:41:37;21.20;43.10
28959;DHT22;16066;0.000;0.000;2024-02-23T09:44:04;21.10;43.60
28959;DHT22;16066;0.000;0.000;2024-02-23T09:46:32;21.00;43.80
28959;DHT22;16066;0.000;0.000;2024-02-23T09:48:59;20.90;43.90
28959;DHT22;16066;0.000;0.000;2024-02-23T09:51:25;20.90;44.00
28959;DHT22;16066;0.000;0.000;2024-02-23T09:53:51;20.90;44.10
28959;DHT22;16066;0.000;0.000;2024-02-23T09:56:17;20.80;44.10
28959;DHT22;16066;0.000;0.000;2024-02-23T09:58:46;20.80;44.10
28959;DHT22;16066;0.000;0.000;2024-02-23T10:01:14;20.80;43.60
28959;DHT22;16066;0.000;0.000;2024-02-23T10:03:45;20.80;44.30
28959;DHT22;16066;0.000;0.000;2024-02-23T10:06:10;20.90;44.00
28959;DHT22;16066;0.000;0.000;2024-02-23T10:08:36;20.90;43.40
28959;DHT22;16066;0.000;0.000;2024-02-23T10:11:01;21.00;43.20
28959;DHT22;16066;0.000;0.000;2024-02-23T10:13:29;21.00;43.10
28959;DHT22;16066;0.000;0.000;2024-02-23T10:15:55;21.00;42.60
28959;DHT22;16066;0.000;0.000;2024-02-23T10:18:20;21.10;42.50
28959;DHT22;16066;0.000;0.000;2024-02-23T10:20:47;21.10;42.50
28959;DHT22;16066;0.000;0.000;2024-02-23T10:23:12;21.10;42.50
28959;DHT22;16066;0.000;0.000;2024-02-23T10:25:38;21.10;42.20
28959;DHT22;16066;0.000;0.000;2024-02-23T10:28:05;21.10;42.50
28959;DHT22;16066;0.000;0.000;2024-02-23T10:30:31;21.10;42.10
28959;DHT22;16066;0.000;0.000;2024-02-23T10:32:58;21.10;42.00
28959;DHT22;16066;0.000;0.000;2024-02-23T10:35:25;21.10;41.90
28959;DHT22;16066;0.000;0.000;2024-02-23T10:37:53;21.10;41.70
28959;DHT22;16066;0.000;0.000;2024-02-23T10:40:20;21.10;41.70
28959;DHT22;16066;0.000;0.000;2024-02-23T10:42:48;21.10;41.20
28959;DHT22;16066;0.000;0.000;2024-02-23T10:45:17;21.10;41.50
28959;DHT22;16066;0.000;0.000;2024-02-23T10:47:44;21.20;41.60
28959;DHT22;16066;0.000;0.000;2024-02-23T10:50:09;21.10;41.50
28959;DHT22;16066;0.000;0.000;2024-02-23T10:52:37;21.20;41.50
28959;DHT22;16066;0.000;0.000;2024-02-23T10:55:04;21.10;41.70
28959;DHT22;16066;0.000;0.000;2024-02-23T10:57:31;21.10;41.80
28959;DHT22;16066;0.000;0.000;2024-02-23T10:59:58;21.10;41.80
28959;DHT22;16066;0.000;0.000;2024-02-23T11:02:24;21.00;42.40
28959;DHT22;16066;0.000;0.000;2024-02-23T11:04:51;21.00;42.70
28959;DHT22;16066;0.000;0.000;2024-02-23T11:07:20;20.90;42.60
28959;DHT22;16066;0.000;0.000;2024-02-23T11:09:52;21.00;42.80
28959;DHT22;16066;0.000;0.000;2024-02-23T11:12:29;21.00;42.30
28959;DHT22;16066;0.000;0.000;2024-02-23T11:14:59;21.00;42.30
28959;DHT22;16066;0.000;0.000;2024-02-23T11:17:30;21.00;42.20
28959;DHT22;16066;0.000;0.000;2024-02-23T11:19:56;21.00;42.00
28959;DHT22;16066;0.000;0.000;2024-02-23T11:22:33;21.00;41.80
28959;DHT22;16066;0.000;0.000;2024-02-23T11:25:07;21.00;41.60
28959;DHT22;16066;0.000;0.000;2024-02-23T11:27:37;21.10;41.20
28959;DHT22;16066;0.000;0.000;2024-02-23T11:30:07;21.10;41.00
28959;DHT22;16066;0.000;0.000;2024-02-23T11:35:04;21.20;41.50
28959;DHT22;16066;0.000;0.000;2024-02-23T11:37:31;21.20;41.10
28959;DHT22;16066;0.000;0.000;2024-02-23T11:39:56;21.20;41.10
28959;DHT22;16066;0.000;0.000;2024-02-23T11:42:23;21.10;41.30
28959;DHT22;16066;0.000;0.000;2024-02-23T11:44:50;21.10;41.10
28959;DHT22;16066;0.000;0.000;2024-02-23T11:47:15;21.10;40.90
28959;DHT22;16066;0.000;0.000;2024-02-23T11:49:42;21.20;41.00
28959;DHT22;16066;0.000;0.000;2024-02-23T11:52:08;21.20;41.00
28959;DHT22;16066;0.000;0.000;2024-02-23T11:54:33;21.10;41.30
28959;DHT22;16066;0.000;0.000;2024-02-23T11:56:59;21.10;41.50
28959;DHT22;16066;0.000;0.000;2024-02-23T11:59:25;21.00;41.30
28959;DHT22;16066;0.000;0.000;2024-02-23T12:01:51;21.00;41.80
28959;DHT22;16066;0.000;0.000;2024-02-23T12:04:16;21.00;42.30
28959;DHT22;16066;0.000;0.000;2024-02-23T12:06:42;21.00;42.10
28959;DHT22;16066;0.000;0.000;2024-02-23T12:09:09;21.00;41.90
28959;DHT22;16066;0.000;0.000;2024-02-23T12:11:35;21.00;41.80
28959;DHT22;16066;0.000;0.000;2024-02-23T12:14:01;21.00;41.70
28959;DHT22;16066;0.000;0.000;2024-02-23T12:16:28;21.00;41.80
28959;DHT22;16066;0.000;0.000;2024-02-23T12:18:56;21.10;42.10
28959;DHT22;16066;0.000;0.000;2024-02-23T12:21:23;21.10;42.10
28959;DHT22;16066;0.000;0.000;2024-02-23T12:23:50;21.10;42.00
28959;DHT22;16066;0.000;0.000;2024-02-23T12:26:17;21.20;41.90
28959;DHT22;16066;0.000;0.000;2024-02-23T12:28:43;21.20;41.80
28959;DHT22;16066;0.000;0.000;2024-02-23T12:31:10;21.20;41.90
28959;DHT22;16066;0.000;0.000;2024-02-23T12:33:37;21.30;41.80
28959;DHT22;16066;0.000;0.000;2024-02-23T12:36:04;21.30;41.60
28959;DHT22;16066;0.000;0.000;2024-02-23T12:38:30;21.30;41.50
28959;DHT22;16066;0.000;0.000;2024-02-23T12:40:56;21.30;42.00
28959;DHT22;16066;0.000;0.000;2024-02-23T12:43:22;21.40;42.90
28959;DHT22;16066;0.000;0.000;2024-02-23T12:45:50;21.30;42.10
28959;DHT22;16066;0.000;0.000;2024-02-23T12:48:17;21.30;42.00
28959;DHT22;16066;0.000;0.000;2024-02-23T12:50:43;21.30;42.10
28959;DHT22;16066;0.000;0.000;2024-02-23T12:53:31;21.30;42.20
28959;DHT22;16066;0.000;0.000;2024-02-23T12:55:57;21.30;41.90
28959;DHT22;16066;0.000;0.000;2024-02-23T12:58:23;21.30;42.20
28959;DHT22;16066;0.000;0.000;2024-02-23T13:00:48;21.30;42.10
28959;DHT22;16066;0.000;0.000;2024-02-23T13:03:14;21.30;42.60
28959;DHT22;16066;0.000;0.000;2024-02-23T13:05:39;21.30;42.50
28959;DHT22;16066;0.000;0.000;2024-02-23T13:08:05;21.30;42.90
28959;DHT22;16066;0.000;0.000;2024-02-23T13:10:31;21.20;43.00
28959;DHT22;16066;0.000;0.000;2024-02-23T13:12:57;21.30;43.00
28959;DHT22;16066;0.000;0.000;2024-02-23T13:15:22;21.40;42.50
28959;DHT22;16066;0.000;0.000;2024-02-23T13:17:47;21.40;42.60
28959;DHT22;16066;0.000;0.000;2024-02-23T13:20:13;21.40;42.50
28959;DHT22;16066;0.000;0.000;2024-02-23T13:22:39;21.40;42.70
28959;DHT22;16066;0.000;0.000;2024-02-23T13:25:05;21.30;42.80
28959;DHT22;16066;0.000;0.000;2024-02-23T13:27:31;21.30;42.50
28959;DHT22;16066;0.000;0.000;2024-02-23T13:29:56;21.30;42.80
28959;DHT22;16066;0.000;0.000;2024-02-23T13:32:22;21.30;42.70
28959;DHT22;16066;0.000;0.000;2024-02-23T13:34:48;21.30;42.70
28959;DHT22;16066;0.000;0.000;2024-02-23T13:37:17;21.30;42.60
28959;DHT22;16066;0.000;0.000;2024-02-23T13:39:43;21.30;43.00
28959;DHT22;16066;0.000;0.000;2024-02-23T13:42:09;21.30;42.80
28959;DHT22;16066;0.000;0.000;2024-02-23T13:44:35;21.30;42.80
28959;DHT22;16066;0.000;0.000;2024-02-23T13:47:01;21.30;42.50
28959;DHT22;16066;0.000;0.000;2024-02-23T13:49:27;21.30;42.70
28959;DHT22;16066;0.000;0.000;2024-02-23T13:51:52;21.30;42.50
28959;DHT22;16066;0.000;0.000;2024-02-23T13:54:18;21.30;42.40
28959;DHT22;16066;0.000;0.000;2024-02-23T13:56:43;21.30;42.40
28959;DHT22;16066;0.000;0.000;2024-02-23T13:59:09;21.30;42.60
28959;DHT22;16066;0.000;0.000;2024-02-23T14:01:35;21.30;43.00
28959;DHT22;16066;0.000;0.000;2024-02-23T14:04:06;21.30;42.70
28959;DHT22;16066;0.000;0.000;2024-02-23T14:06:31;21.20;42.90
28959;DHT22;16066;0.000;0.000;2024-02-23T14:08:57;21.20;42.60
28959;DHT22;16066;0.000;0.000;2024-02-23T14:11:23;21.30;42.60
28959;DHT22;16066;0.000;0.000;2024-02-23T14:13:48;21.20;42.50
28959;DHT22;16066;0.000;0.000;2024-02-23T14:16:14;21.20;42.30
28959;DHT22;16066;0.000;0.000;2024-02-23T14:18:39;21.20;42.30
28959;DHT22;16066;0.000;0.000;2024-02-23T14:21:07;21.10;42.10
28959;DHT22;16066;0.000;0.000;2024-02-23T14:23:33;21.10;42.30
28959;DHT22;16066;0.000;0.000;2024-02-23T14:25:59;21.10;42.00
28959;DHT22;16066;0.000;0.000;2024-02-23T14:28:25;21.10;42.10
28959;DHT22;16066;0.000;0.000;2024-02-23T14:30:50;21.10;41.90
28959;DHT22;16066;0.000;0.000;2024-02-23T14:33:16;21.10;41.80
28959;DHT22;16066;0.000;0.000;2024-02-23T14:35:41;21.10;41.70
28959;DHT22;16066;0.000;0.000;2024-02-23T14:38:07;21.10;41.90
28959;DHT22;16066;0.000;0.000;2024-02-23T14:40:32;21.10;41.80
28959;DHT22;16066;0.000;0.000;2024-02-23T14:42:58;21.10;42.20
28959;DHT22;16066;0.000;0.000;2024-02-23T14:45:24;21.00;42.40
28959;DHT22;16066;0.000;0.000;2024-02-23T14:47:50;21.00;43.20
28959;DHT22;16066;0.000;0.000;2024-02-23T14:50:16;21.00;42.90
28959;DHT22;16066;0.000;0.000;2024-02-23T14:52:41;21.00;42.50
28959;DHT22;16066;0.000;0.000;2024-02-23T14:55:09;21.10;42.80
28959;DHT22;16066;0.000;0.000;2024-02-23T14:57:37;21.10;43.30
28959;DHT22;16066;0.000;0.000;2024-02-23T15:00:03;21.10;43.10
28959;DHT22;16066;0.000;0.000;2024-02-23T15:02:29;21.10;42.90
28959;DHT22;16066;0.000;0.000;2024-02-23T15:04:54;21.00;43.20
28959;DHT22;16066;0.000;0.000;2024-02-23T15:07:20;21.00;43.20
28959;DHT22;16066;0.000;0.000;2024-02-23T15:09:45;21.10;43.40
28959;DHT22;16066;0.000;0.000;2024-02-23T15:12:11;21.10;43.60
28959;DHT22;16066;0.000;0.000;2024-02-23T15:14:37;21.10;43.60
28959;DHT22;16066;0.000;0.000;2024-02-23T15:17:03;21.10;43.60
28959;DHT22;16066;0.000;0.000;2024-02-23T15:19:29;21.00;43.60
28959;DHT22;16066;0.000;0.000;2024-02-23T15:21:55;21.00;43.30
28959;DHT22;16066;0.000;0.000;2024-02-23T15:24:21;21.00;43.50
28959;DHT22;16066;0.000;0.000;2024-02-23T15:26:49;21.00;43.70
28959;DHT22;16066;0.000;0.000;2024-02-23T15:29:15;21.00;43.20
28959;DHT22;16066;0.000;0.000;2024-02-23T15:31:40;21.00;43.30
28959;DHT22;16066;0.000;0.000;2024-02-23T15:34:08;21.00;43.50
28959;DHT22;16066;0.000;0.000;2024-02-23T15:36:33;21.00;43.60
28959;DHT22;16066;0.000;0.000;2024-02-23T15:38:59;21.10;43.50
28959;DHT22;16066;0.000;0.000;2024-02-23T15:41:31;21.10;43.30
28959;DHT22;16066;0.000;0.000;2024-02-23T15:44:02;21.10;43.20
28959;DHT22;16066;0.000;0.000;2024-02-23T15:46:28;21.10;42.90
28959;DHT22;16066;0.000;0.000;2024-02-23T15:48:55;21.10;43.00
28959;DHT22;16066;0.000;0.000;2024-02-23T15:51:20;21.10;42.90
28959;DHT22;16066;0.000;0.000;2024-02-23T15:53:46;21.20;42.90
28959;DHT22;16066;0.000;0.000;2024-02-23T15:56:12;21.20;42.90
28959;DHT22;16066;0.000;0.000;2024-02-23T15:58:38;21.20;42.40
28959;DHT22;16066;0.000;0.000;2024-02-23T16:01:03;21.30;42.40
28959;DHT22;16066;0.000;0.000;2024-02-23T16:03:29;21.30;42.20
28959;DHT22;16066;0.000;0.000;2024-02-23T16:05:55;21.40;42.30
28959;DHT22;16066;0.000;0.000;2024-02-23T16:08:41;21.40;41.70
28959;DHT22;16066;0.000;0.000;2024-02-23T16:11:09;21.40;42.10
28959;DHT22;16066;0.000;0.000;2024-02-23T16:13:36;21.40;42.20
28959;DHT22;16066;0.000;0.000;2024-02-23T16:16:02;21.40;42.10
28959;DHT22;16066;0.000;0.000;2024-02-23T16:18:27;21.40;42.80
28959;DHT22;16066;0.000;0.000;2024-02-23T16:20:53;21.40;42.20
28959;DHT22;16066;0.000;0.000;2024-02-23T16:23:19;21.40;42.20
28959;DHT22;16066;0.000;0.000;2024-02-23T16:25:44;21.40;42.00
28959;DHT22;16066;0.000;0.000;2024-02-23T16:28:10;21.40;42.20
28959;DHT22;16066;0.000;0.000;2024-02-23T16:30:38;21.40;42.20
28959;DHT22;16066;0.000;0.000;2024-02-23T16:33:03;21.40;42.10
28959;DHT22;16066;0.000;0.000;2024-02-23T16:35:29;21.40;42.00
28959;DHT22;16066;0.000;0.000;2024-02-23T16:37:54;21.40;41.90
28959;DHT22;16066;0.000;0.000;2024-02-23T16:40:22;21.40;42.00
28959;DHT22;16066;0.000;0.000;2024-02-23T16:42:53;21.40;42.10
28959;DHT22;16066;0.000;0.000;2024-02-23T16:45:19;21.40;42.20
28959;DHT22;16066;0.000;0.000;2024-02-23T16:47:44;21.40;42.30
28959;DHT22;16066;0.000;0.000;2024-02-23T16:50:10;21.40;42.50
28959;DHT22;16066;0.000;0.000;2024-02-23T16:52:35;21.40;42.50
28959;DHT22;16066;0.000;0.000;2024-02-23T16:55:01;21.40;42.50
28959;DHT22;16066;0.000;0.000;2024-02-23T16:57:27;21.30;42.60
28959;DHT22;16066;0.000;0.000;2024-02-23T16:59:52;21.30;42.60
28959;DHT22;16066;0.000;0.000;2024-02-23T17:02:18;21.30;42.70
28959;DHT22;16066;0.000;0.000;2024-02-23T17:04:43;21.30;42.80
28959;DHT22;16066;0.000;0.000;2024-02-23T17:07:09;21.30;43.00
28959;DHT22;16066;0.000;0.000;2024-02-23T17:09:34;21.30;42.70
28959;DHT22;16066;0.000;0.000;2024-02-23T17:12:00;21.30;42.50
28959;DHT22;16066;0.000;0.000;2024-02-23T17:14:25;21.30;42.50
28959;DHT22;16066;0.000;0.000;2024-02-23T17:16:51;21.30;42.80
28959;DHT22;16066;0.000;0.000;2024-02-23T17:19:16;21.30;42.80
28959;DHT22;16066;0.000;0.000;2024-02-23T17:21:42;21.20;43.20
28959;DHT22;16066;0.000;0.000;2024-02-23T17:24:08;21.20;43.40
28959;DHT22;16066;0.000;0.000;2024-02-23T17:26:33;21.20;43.70
28959;DHT22;16066;0.000;0.000;2024-02-23T17:28:59;21.20;43.70
28959;DHT22;16066;0.000;0.000;2024-02-23T17:31:24;21.20;43.50
28959;DHT22;16066;0.000;0.000;2024-02-23T17:33:50;21.20;43.50
28959;DHT22;16066;0.000;0.000;2024-02-23T17:36:15;21.30;43.30
28959;DHT22;16066;0.000;0.000;2024-02-23T17:38:41;21.30;43.40
28959;DHT22;16066;0.000;0.000;2024-02-23T17:41:07;21.30;43.30
28959;DHT22;16066;0.000;0.000;2024-02-23T17:43:32;21.30;43.30
28959;DHT22;16066;0.000;0.000;2024-02-23T17:45:58;21.30;43.10
28959;DHT22;16066;0.000;0.000;2024-02-23T17:48:25;21.30;42.70
28959;DHT22;16066;0.000;0.000;2024-02-23T17:50:50;21.30;42.80
28959;DHT22;16066;0.000;0.000;2024-02-23T17:53:16;21.30;42.60
28959;DHT22;16066;0.000;0.000;2024-02-23T17:55:42;21.30;42.70
28959;DHT22;16066;0.000;0.000;2024-02-23T17:58:07;21.30;42.90
28959;DHT22;16066;0.000;0.000;2024-02-23T18:00:33;21.30;43.00
28959;DHT22;16066;0.000;0.000;2024-02-23T18:02:58;21.30;43.20
28959;DHT22;16066;0.000;0.000;2024-02-23T18:05:25;21.30;43.10
28959;DHT22;16066;0.000;0.000;2024-02-23T18:07:52;21.30;43.40
28959;DHT22;16066;0.000;0.000;2024-02-23T18:10:18;21.30;43.40
28959;DHT22;16066;0.000;0.000;2024-02-23T18:12:44;21.30;43.40
28959;DHT22;16066;0.000;0.000;2024-02-23T18:15:09;21.30;43.50
28959;DHT22;16066;0.000;0.000;2024-02-23T18:17:35;21.30;43.40
28959;DHT22;16066;0.000;0.000;2024-02-23T18:20:01;21.30;43.40
28959;DHT22;16066;0.000;0.000;2024-02-23T18:22:26;21.30;43.40
28959;DHT22;16066;0.000;0.000;2024-02-23T18:24:52;21.30;43.60
28959;DHT22;16066;0.000;0.000;2024-02-23T18:27:18;21.30;43.70
28959;DHT22;16066;0.000;0.000;2024-02-23T18:29:43;21.30;43.70
28959;DHT22;16066;0.000;0.000;2024-02-23T18:32:10;21.30;43.70
28959;DHT22;16066;0.000;0.000;2024-02-23T18:34:37;21.30;43.40
28959;DHT22;16066;0.000;0.000;2024-02-23T18:37:02;21.30;43.50
28959;DHT22;16066;0.000;0.000;2024-02-23T18:39:29;21.30;43.60
28959;DHT22;16066;0.000;0.000;2024-02-23T18:41:55;21.30;43.60
28959;DHT22;16066;0.000;0.000;2024-02-23T18:44:20;21.30;43.70
28959;DHT22;16066;0.000;0.000;2024-02-23T18:46:46;21.30;43.60
28959;DHT22;16066;0.000;0.000;2024-02-23T18:49:11;21.30;43.40
28959;DHT22;16066;0.000;0.000;2024-02-23T18:51:37;21.30;43.60
28959;DHT22;16066;0.000;0.000;2024-02-23T18:54:02;21.30;43.60
28959;DHT22;16066;0.000;0.000;2024-02-23T18:56:28;21.30;43.90
28959;DHT22;16066;0.000;0.000;2024-02-23T18:58:55;21.30;43.70
28959;DHT22;16066;0.000;0.000;2024-02-23T19:01:21;21.30;43.70
28959;DHT22;16066;0.000;0.000;2024-02-23T19:03:47;21.30;43.70
28959;DHT22;16066;0.000;0.000;2024-02-23T19:06:12;21.30;43.70
28959;DHT22;16066;0.000;0.000;2024-02-23T19:08:38;21.30;43.60
28959;DHT22;16066;0.000;0.000;2024-02-23T19:11:03;21.30;43.70
28959;DHT22;16066;0.000;0.000;2024-02-23T19:13:29;21.30;43.70
28959;DHT22;16066;0.000;0.000;2024-02-23T19:15:55;21.30;43.70
28959;DHT22;16066;0.000;0.000;2024-02-23T19:18:20;21.30;43.80
28959;DHT22;16066;0.000;0.000;2024-02-23T19:20:46;21.30;43.90
28959;DHT22;16066;0.000;0.000;2024-02-23T19:23:11;21.30;44.00
28959;DHT22;16066;0.000;0.000;2024-02-23T19:25:37;21.30;44.10
28959;DHT22;16066;0.000;0.000;2024-02-23T19:28:03;21.30;43.90
28959;DHT22;16066;0.000;0.000;2024-02-23T19:30:28;21.30;44.20
28959;DHT22;16066;0.000;0.000;2024-02-23T19:32:54;21.30;44.10
28959;DHT22;16066;0.000;0.000;2024-02-23T19:35:19;21.30;44.30
28959;DHT22;16066;0.000;0.000;2024-02-23T19:37:45;21.30;44.50
28959;DHT22;16066;0.000;0.000;2024-02-23T19:40:11;21.30;44.10
28959;DHT22;16066;0.000;0.000;2024-02-23T19:42:38;21.30;43.40
28959;DHT22;16066;0.000;0.000;2024-02-23T19:45:04;21.20;43.20
28959;DHT22;16066;0.000;0.000;2024-02-23T19:47:30;21.20;43.20
28959;DHT22;16066;0.000;0.000;2024-02-23T19:49:56;21.20;43.10
28959;DHT22;16066;0.000;0.000;2024-02-23T19:52:21;21.20;42.90
28959;DHT22;16066;0.000;0.000;2024-02-23T19:54:47;21.20;42.50
28959;DHT22;16066;0.000;0.000;2024-02-23T19:57:13;21.30;42.80
28959;DHT22;16066;0.000;0.000;2024-02-23T19:59:39;21.40;42.50
28959;DHT22;16066;0.000;0.000;2024-02-23T20:02:06;21.50;42.30
28959;DHT22;16066;0.000;0.000;2024-02-23T20:04:44;21.50;42.40
28959;DHT22;16066;0.000;0.000;2024-02-23T20:07:10;21.50;42.20
28959;DHT22;16066;0.000;0.000;2024-02-23T20:09:41;21.50;42.50
28959;DHT22;16066;0.000;0.000;2024-02-23T20:12:07;21.50;42.50
28959;DHT22;16066;0.000;0.000;2024-02-23T20:14:34;21.50;42.50
28959;DHT22;16066;0.000;0.000;2024-02-23T20:16:59;21.50;42.90
28959;DHT22;16066;0.000;0.000;2024-02-23T20:19:25;21.50;42.50
28959;DHT22;16066;0.000;0.000;2024-02-23T20:21:50;21.50;42.60
28959;DHT22;16066;0.000;0.000;2024-02-23T20:24:16;21.60;42.50
28959;DHT22;16066;0.000;0.000;2024-02-23T20:26:41;21.60;43.30
28959;DHT22;16066;0.000;0.000;2024-02-23T20:29:08;21.60;42.70
28959;DHT22;16066;0.000;0.000;2024-02-23T20:31:33;21.60;42.50
28959;DHT22;16066;0.000;0.000;2024-02-23T20:34:04;21.60;42.40
28959;DHT22;16066;0.000;0.000;2024-02-23T20:36:29;21.60;42.30
28959;DHT22;16066;0.000;0.000;2024-02-23T20:38:55;21.70;42.40
28959;DHT22;16066;0.000;0.000;2024-02-23T20:41:21;21.70;42.50
28959;DHT22;16066;0.000;0.000;2024-02-23T20:43:48;21.60;42.40
28959;DHT22;16066;0.000;0.000;2024-02-23T20:46:14;21.60;42.50
28959;DHT22;16066;0.000;0.000;2024-02-23T20:48:39;21.70;42.70
28959;DHT22;16066;0.000;0.000;2024-02-23T20:51:05;21.70;42.80
28959;DHT22;16066;0.000;0.000;2024-02-23T20:53:33;21.70;42.80
28959;DHT22;16066;0.000;0.000;2024-02-23T20:55:58;21.60;42.70
28959;DHT22;16066;0.000;0.000;2024-02-23T20:58:24;21.60;42.70
28959;DHT22;16066;0.000;0.000;2024-02-23T21:00:49;21.60;42.80
28959;DHT22;16066;0.000;0.000;2024-02-23T21:03:15;21.60;42.80
28959;DHT22;16066;0.000;0.000;2024-02-23T21:05:41;21.60;42.90
28959;DHT22;16066;0.000;0.000;2024-02-23T21:08:07;21.70;43.70
28959;DHT22;16066;0.000;0.000;2024-02-23T21:10:34;21.60;42.90
28959;DHT22;16066;0.000;0.000;2024-02-23T21:12:59;21.70;43.10
28959;DHT22;16066;0.000;0.000;2024-02-23T21:15:26;21.70;43.10
28959;DHT22;16066;0.000;0.000;2024-02-23T21:17:52;21.70;43.20
28959;DHT22;16066;0.000;0.000;2024-02-23T21:20:18;21.70;43.30
28959;DHT22;16066;0.000;0.000;2024-02-23T21:22:44;21.70;43.30
28959;DHT22;16066;0.000;0.000;2024-02-23T21:25:10;21.70;43.20
28959;DHT22;16066;0.000;0.000;2024-02-23T21:27:35;21.70;43.10
28959;DHT22;16066;0.000;0.000;2024-02-23T21:30:01;21.80;43.20
28959;DHT22;16066;0.000;0.000;2024-02-23T21:32:27;21.80;43.20
28959;DHT22;16066;0.000;0.000;2024-02-23T21:34:55;21.80;42.90
28959;DHT22;16066;0.000;0.000;2024-02-23T21:37:20;21.80;43.00
28959;DHT22;16066;0.000;0.000;2024-02-23T21:39:46;21.80;42.70
28959;DHT22;16066;0.000;0.000;2024-02-23T21:42:12;21.90;42.70